Time;durP1;ratioP1;P1;durP2;ratioP2;P2;SDS_P1;SDS_P2;PMS_P1;PMS_P2;Temp;Humidity;BMP_temperature;BMP_pressure;BME280_temperature;BME280_humidity;BME280_pressure;Samples;Min_cycle;Max_cycle;Signal;HPM_P1;HPM_P2
2021/04/08 00:00:40;;;;;;;9.82;5.75;;;3.10;95.00;;;;;;2107502;28;20024;-70
2021/04/08 00:01:40;;;;;;;9.20;5.93;;;3.10;95.10;;;;;;2107634;28;20032;-70
2021/04/08 00:02:42;;;;;;;9.88;6.00;;;3.00;95.40;;;;;;2107936;28;20036;-70
2021/04/08 00:03:43;;;;;;;10.00;5.75;;;3.00;95.60;;;;;;2107371;28;20149;-70
2021/04/08 00:04:44;;;;;;;9.90;6.03;;;3.00;95.40;;;;;;2107739;28;20051;-70
2021/04/08 00:05:45;;;;;;;10.90;6.25;;;3.00;95.80;;;;;;2107511;28;20101;-70
2021/04/08 00:06:45;;;;;;;9.15;6.00;;;2.90;95.80;;;;;;2108172;28;20026;-70
2021/04/08 00:07:46;;;;;;;12.35;6.25;;;2.90;95.70;;;;;;2108728;28;20169;-70
2021/04/08 00:08:46;;;;;;;11.35;6.15;;;2.80;95.70;;;;;;2109384;28;20032;-69
2021/04/08 00:09:47;;;;;;;10.48;6.07;;;2.80;95.70;;;;;;2109862;28;20075;-70
2021/04/08 00:10:47;;;;;;;11.90;6.22;;;2.70;96.10;;;;;;2108984;28;20020;-70
2021/04/08 00:11:48;;;;;;;10.23;5.80;;;2.70;96.30;;;;;;2109020;28;20484;-70
2021/04/08 00:12:49;;;;;;;10.55;5.75;;;2.60;96.50;;;;;;2108465;28;20032;-70
2021/04/08 00:13:49;;;;;;;9.70;5.95;;;2.60;96.40;;;;;;2108602;28;20050;-70
2021/04/08 00:14:50;;;;;;;9.77;6.10;;;2.60;96.40;;;;;;2109240;28;20070;-71
2021/04/08 00:15:50;;;;;;;9.38;5.38;;;2.60;96.60;;;;;;2108321;28;20052;-70
2021/04/08 00:16:52;;;;;;;9.10;5.40;;;2.60;96.40;;;;;;2108224;28;20032;-70
2021/04/08 00:17:52;;;;;;;10.75;5.70;;;2.60;96.40;;;;;;2107779;28;20122;-70
2021/04/08 00:18:53;;;;;;;9.82;5.90;;;2.60;96.50;;;;;;2099414;28;20032;-70
2021/04/08 00:19:53;;;;;;;8.05;5.30;;;2.50;96.50;;;;;;2107820;28;20040;-70
2021/04/08 00:20:54;;;;;;;10.77;6.28;;;2.50;96.90;;;;;;2107666;28;20031;-70
2021/04/08 00:21:55;;;;;;;10.82;6.15;;;2.50;96.80;;;;;;2107486;28;20161;-70
2021/04/08 00:22:55;;;;;;;11.30;6.15;;;2.60;96.90;;;;;;2108216;28;20028;-70
2021/04/08 00:23:56;;;;;;;9.43;6.07;;;2.60;96.70;;;;;;2107663;28;20031;-70
2021/04/08 00:24:56;;;;;;;8.32;6.22;;;2.60;96.70;;;;;;2107590;28;20518;-69
2021/04/08 00:25:58;;;;;;;9.15;6.10;;;2.50;96.90;;;;;;2107827;28;20118;-69
2021/04/08 00:26:58;;;;;;;9.02;6.40;;;2.60;96.90;;;;;;2107483;28;20008;-70
2021/04/08 00:27:59;;;;;;;14.50;7.93;;;2.60;97.00;;;;;;2108436;28;20089;-70
2021/04/08 00:29:00;;;;;;;12.05;7.82;;;2.60;96.70;;;;;;2108167;28;20540;-70
2021/04/08 00:30:00;;;;;;;13.43;8.02;;;2.60;96.70;;;;;;2108308;28;20027;-70
2021/04/08 00:31:01;;;;;;;12.88;8.40;;;2.60;96.60;;;;;;2108158;28;20513;-69
2021/04/08 00:32:01;;;;;;;14.15;8.45;;;2.60;96.50;;;;;;2108070;28;20439;-69
2021/04/08 00:33:02;;;;;;;15.02;8.52;;;2.60;96.60;;;;;;2108027;28;20047;-70
2021/04/08 00:34:03;;;;;;;13.48;8.27;;;2.60;96.40;;;;;;2107801;28;20494;-69
2021/04/08 00:35:05;;;;;;;14.40;8.30;;;2.60;96.40;;;;;;2107335;28;20073;-70
2021/04/08 00:36:06;;;;;;;18.00;9.32;;;2.60;96.50;;;;;;2107519;28;20036;-70
2021/04/08 00:37:06;;;;;;;14.05;8.90;;;2.60;96.40;;;;;;2108196;28;20099;-70
2021/04/08 00:38:08;;;;;;;15.00;9.18;;;2.60;96.20;;;;;;2110414;28;20046;-70
2021/04/08 00:39:11;;;;;;;14.50;8.82;;;2.60;96.40;;;;;;2110941;28;20032;-70
2021/04/08 00:40:14;;;;;;;13.75;8.95;;;2.60;96.60;;;;;;2110410;28;20086;-70
2021/04/08 00:41:15;;;;;;;15.18;9.25;;;2.70;96.80;;;;;;2111060;28;20059;-70
2021/04/08 00:42:16;;;;;;;16.45;9.27;;;2.70;96.60;;;;;;2111200;28;20024;-70
2021/04/08 00:43:16;;;;;;;15.35;9.23;;;2.70;96.40;;;;;;2112083;28;20034;-70
2021/04/08 00:44:17;;;;;;;18.45;9.85;;;2.70;96.50;;;;;;2111833;28;20034;-70
2021/04/08 00:45:18;;;;;;;13.73;8.90;;;2.70;96.60;;;;;;2112834;28;20034;-70
2021/04/08 00:46:18;;;;;;;16.45;9.40;;;2.70;96.30;;;;;;2113028;28;20031;-70
2021/04/08 00:47:20;;;;;;;15.55;8.57;;;2.70;96.30;;;;;;2114099;28;20035;-70
2021/04/08 00:48:20;;;;;;;15.73;8.43;;;2.70;96.20;;;;;;2113329;28;20024;-69
2021/04/08 00:49:21;;;;;;;13.95;8.38;;;2.70;96.20;;;;;;2112209;28;20082;-69
2021/04/08 00:50:22;;;;;;;12.95;8.15;;;2.70;96.20;;;;;;2111801;28;20028;-69
2021/04/08 00:51:24;;;;;;;18.73;8.07;;;2.70;96.10;;;;;;2111491;28;20391;-69
2021/04/08 00:52:26;;;;;;;17.05;7.68;;;2.70;95.90;;;;;;2099668;28;20066;-70
2021/04/08 00:53:29;;;;;;;15.05;7.30;;;2.70;95.90;;;;;;2089072;28;20531;-70
2021/04/08 00:54:30;;;;;;;16.70;7.30;;;2.60;95.50;;;;;;2097959;28;20043;-69
2021/04/08 00:55:41;;;;;;;12.50;6.65;;;2.70;95.50;;;;;;2105874;28;20063;-69
2021/04/08 00:56:42;;;;;;;13.95;6.80;;;2.60;95.40;;;;;;2107659;28;20492;-69
2021/04/08 00:57:43;;;;;;;12.77;6.40;;;2.60;95.40;;;;;;2105889;28;20020;-70
2021/04/08 00:58:45;;;;;;;13.98;6.70;;;2.70;95.60;;;;;;2106003;28;20028;-70
2021/04/08 00:59:46;;;;;;;14.02;6.97;;;2.70;95.60;;;;;;2106506;28;20028;-69
2021/04/08 01:00:48;;;;;;;13.15;7.00;;;2.70;95.90;;;;;;2106467;28;20111;-70
2021/04/08 01:01:50;;;;;;;17.88;7.32;;;2.70;95.70;;;;;;2106385;28;20020;-69
2021/04/08 01:02:51;;;;;;;16.15;7.03;;;2.70;95.70;;;;;;2105605;28;20028;-70
2021/04/08 01:03:51;;;;;;;10.93;6.57;;;2.70;95.60;;;;;;2105625;28;20036;-70
2021/04/08 01:04:52;;;;;;;14.57;6.78;;;2.70;95.50;;;;;;2105818;28;20028;-70
2021/04/08 01:05:53;;;;;;;14.05;6.78;;;2.70;95.60;;;;;;2106465;28;20360;-70
2021/04/08 01:06:54;;;;;;;13.40;6.50;;;2.70;95.20;;;;;;2105838;28;20027;-70
2021/04/08 01:07:54;;;;;;;15.05;6.60;;;2.60;95.10;;;;;;2105844;28;20064;-70
2021/04/08 01:08:55;;;;;;;14.02;6.93;;;2.70;95.10;;;;;;2106534;28;20032;-69
2021/04/08 01:09:55;;;;;;;13.38;6.85;;;2.70;95.00;;;;;;2106371;28;20032;-69
2021/04/08 01:10:56;;;;;;;13.23;6.88;;;2.70;94.80;;;;;;2106662;28;20016;-69
2021/04/08 01:11:57;;;;;;;14.05;7.15;;;2.70;94.80;;;;;;2106541;28;20561;-71
2021/04/08 01:13:04;;;;;;;12.93;7.00;;;2.70;95.00;;;;;;2106365;28;20392;-69
2021/04/08 01:14:05;;;;;;;15.07;7.30;;;2.70;94.90;;;;;;2106361;28;20024;-70
2021/04/08 01:15:07;;;;;;;13.20;7.65;;;2.70;95.10;;;;;;2106402;28;20024;-69
2021/04/08 01:16:16;;;;;;;15.75;8.18;;;2.70;95.00;;;;;;2105747;28;20099;-70
2021/04/08 01:17:25;;;;;;;14.18;8.18;;;2.70;95.10;;;;;;2106090;28;20077;-70
2021/04/08 01:18:54;;;;;;;16.58;8.35;;;2.70;95.30;;;;;;2106404;28;20027;-70
2021/04/08 01:20:13;;;;;;;16.58;8.85;;;2.70;95.00;;;;;;2106433;28;20035;-69
2021/04/08 01:21:19;;;;;;;15.23;8.75;;;2.70;95.40;;;;;;2106402;28;20104;-69
2021/04/08 01:22:20;;;;;;;16.23;8.55;;;2.70;95.30;;;;;;2106247;28;20081;-70
2021/04/08 01:23:48;;;;;;;19.13;9.05;;;2.70;95.10;;;;;;2105963;28;20477;-70
2021/04/08 01:25:07;;;;;;;16.42;9.07;;;2.70;95.50;;;;;;2106268;28;20043;-69
2021/04/08 01:26:45;;;;;;;17.30;9.70;;;2.70;95.70;;;;;;2106275;28;20080;-70
2021/04/08 01:28:31;;;;;;;15.85;9.68;;;2.70;96.00;;;;;;2106470;28;20050;-69
2021/04/08 01:29:50;;;;;;;16.35;9.25;;;2.70;95.90;;;;;;2106217;28;20043;-69
2021/04/08 01:30:53;;;;;;;12.57;8.52;;;2.70;96.10;;;;;;2106264;28;20510;-69
2021/04/08 01:31:54;;;;;;;14.90;9.35;;;2.70;96.00;;;;;;2106188;28;20024;-69
2021/04/08 01:32:56;;;;;;;14.77;8.98;;;2.60;96.10;;;;;;2106137;28;20020;-70
2021/04/08 01:34:03;;;;;;;14.35;8.77;;;2.60;96.20;;;;;;2105236;28;20555;-69
2021/04/08 01:35:07;;;;;;;14.10;8.88;;;2.60;96.10;;;;;;2105719;28;20034;-70
2021/04/08 01:36:20;;;;;;;14.80;8.05;;;2.50;96.00;;;;;;2106286;28;20117;-70
2021/04/08 01:37:27;;;;;;;15.45;7.82;;;2.50;95.90;;;;;;2105538;28;20411;-69
2021/04/08 01:38:35;;;;;;;17.77;7.85;;;2.40;95.60;;;;;;2105574;28;20028;-69
2021/04/08 01:39:41;;;;;;;15.10;7.93;;;2.40;95.60;;;;;;2105656;28;20038;-70
2021/04/08 01:40:45;;;;;;;16.40;7.40;;;2.40;96.00;;;;;;2106283;28;20036;-69
2021/04/08 01:41:48;;;;;;;13.30;6.65;;;2.50;95.80;;;;;;2105497;28;20024;-70
2021/04/08 01:42:53;;;;;;;14.88;6.95;;;2.50;95.50;;;;;;2105482;28;20069;-69
2021/04/08 01:43:57;;;;;;;13.88;6.55;;;2.50;95.40;;;;;;2105890;28;20479;-69
2021/04/08 01:45:00;;;;;;;16.58;7.38;;;2.50;95.60;;;;;;2106119;28;20039;-70
2021/04/08 01:46:03;;;;;;;16.52;7.35;;;2.50;96.00;;;;;;2106183;28;20023;-69
2021/04/08 01:47:06;;;;;;;15.10;7.13;;;2.40;96.00;;;;;;2106163;28;20081;-70
2021/04/08 01:48:07;;;;;;;17.77;7.07;;;2.40;96.40;;;;;;2106145;28;20030;-70
2021/04/08 01:49:09;;;;;;;14.63;7.00;;;2.40;96.50;;;;;;2106187;28;20048;-69
2021/04/08 01:50:11;;;;;;;12.90;7.32;;;2.40;96.40;;;;;;2106015;28;20107;-69
2021/04/08 01:51:14;;;;;;;15.13;7.80;;;2.30;96.70;;;;;;2106062;28;20115;-70
2021/04/08 01:52:15;;;;;;;15.55;8.43;;;2.30;96.90;;;;;;2105938;28;20399;-69
2021/04/08 01:53:19;;;;;;;13.80;8.07;;;2.30;97.10;;;;;;2105581;28;20105;-70
2021/04/08 01:54:22;;;;;;;12.73;8.23;;;2.20;96.90;;;;;;2106131;28;20085;-70
2021/04/08 01:55:23;;;;;;;14.27;8.10;;;2.30;97.00;;;;;;2106113;28;20419;-69
2021/04/08 01:56:29;;;;;;;14.85;8.98;;;2.30;97.10;;;;;;2105374;28;20021;-70
2021/04/08 01:57:32;;;;;;;13.85;8.57;;;2.30;97.40;;;;;;2097733;28;20520;-70
2021/04/08 01:58:34;;;;;;;16.40;9.30;;;2.30;97.00;;;;;;2105454;28;20032;-69
2021/04/08 01:59:36;;;;;;;14.45;9.02;;;2.30;96.70;;;;;;2105420;28;20024;-69
2021/04/08 02:00:39;;;;;;;17.48;9.43;;;2.20;97.00;;;;;;2105585;28;20028;-70
2021/04/08 02:01:42;;;;;;;15.18;9.65;;;2.20;97.00;;;;;;2105898;28;20111;-70
2021/04/08 02:02:45;;;;;;;15.48;9.07;;;2.20;97.00;;;;;;2105861;28;20020;-69
2021/04/08 02:03:48;;;;;;;16.35;9.68;;;2.20;96.70;;;;;;2105627;28;20024;-70
2021/04/08 02:04:50;;;;;;;14.60;9.77;;;2.20;96.80;;;;;;2105879;28;20059;-69
2021/04/08 02:05:52;;;;;;;14.57;9.32;;;2.30;96.70;;;;;;2105758;28;20025;-70
2021/04/08 02:06:54;;;;;;;14.45;9.27;;;2.30;96.60;;;;;;2105866;28;20032;-69
2021/04/08 02:07:57;;;;;;;14.45;9.02;;;2.20;96.40;;;;;;2105830;28;20411;-70
2021/04/08 02:08:58;;;;;;;14.63;9.20;;;2.30;96.40;;;;;;2105927;28;20383;-70
2021/04/08 02:09:59;;;;;;;16.92;9.63;;;2.30;96.60;;;;;;2105918;28;20487;-70
2021/04/08 02:11:01;;;;;;;15.98;9.32;;;2.30;96.70;;;;;;2105912;28;20051;-70
2021/04/08 02:12:02;;;;;;;15.40;8.80;;;2.30;96.60;;;;;;2105906;28;20028;-69
2021/04/08 02:13:04;;;;;;;14.63;8.90;;;2.30;96.40;;;;;;2105859;28;20119;-70
2021/04/08 02:14:06;;;;;;;15.07;8.43;;;2.40;96.40;;;;;;2105505;28;20060;-70
2021/04/08 02:15:08;;;;;;;18.27;9.07;;;2.40;96.10;;;;;;2105910;28;20015;-70
2021/04/08 02:16:10;;;;;;;15.27;8.80;;;2.40;96.10;;;;;;2105873;28;20399;-70
2021/04/08 02:17:12;;;;;;;17.15;7.60;;;2.40;96.00;;;;;;2105878;28;20368;-69
2021/04/08 02:18:18;;;;;;;16.33;7.97;;;2.40;95.80;;;;;;2106146;28;20395;-70
2021/04/08 02:19:21;;;;;;;15.68;7.28;;;2.40;95.40;;;;;;2105901;28;20036;-69
2021/04/08 02:20:26;;;;;;;12.70;6.65;;;2.40;95.10;;;;;;2105815;28;20081;-69
2021/04/08 02:21:28;;;;;;;14.70;6.38;;;2.40;94.60;;;;;;2105883;28;20589;-69
2021/04/08 02:22:28;;;;;;;17.17;6.90;;;2.40;94.20;;;;;;2105858;28;20066;-69
2021/04/08 02:23:33;;;;;;;13.02;6.07;;;2.50;94.60;;;;;;2105665;28;20054;-69
2021/04/08 02:24:35;;;;;;;12.23;5.72;;;2.50;94.50;;;;;;2105774;28;20119;-70
2021/04/08 02:25:37;;;;;;;15.50;6.05;;;2.50;94.20;;;;;;2105290;28;20434;-70
2021/04/08 02:26:45;;;;;;;10.82;5.57;;;2.50;94.10;;;;;;2105444;28;20529;-70
2021/04/08 02:27:47;;;;;;;14.85;5.65;;;2.50;94.20;;;;;;2105977;28;20065;-70
2021/04/08 02:28:48;;;;;;;11.88;5.63;;;2.50;93.80;;;;;;2105921;28;20035;-70
2021/04/08 02:29:50;;;;;;;14.38;5.60;;;2.50;93.40;;;;;;2106059;28;20202;-69
2021/04/08 02:30:51;;;;;;;11.60;4.90;;;2.60;93.60;;;;;;2105934;28;20447;-69
2021/04/08 02:31:53;;;;;;;9.32;5.07;;;2.60;93.30;;;;;;2106116;28;20039;-70
2021/04/08 02:32:54;;;;;;;13.48;5.55;;;2.60;93.20;;;;;;2105713;28;20030;-70
2021/04/08 02:33:55;;;;;;;12.20;5.03;;;2.60;93.30;;;;;;2105616;28;20036;-69
2021/04/08 02:34:56;;;;;;;11.93;4.93;;;2.60;93.20;;;;;;2105884;28;20066;-70
2021/04/08 02:35:59;;;;;;;13.63;5.28;;;2.70;93.20;;;;;;2105988;28;20145;-69
2021/04/08 02:37:00;;;;;;;15.38;5.32;;;2.70;93.10;;;;;;2106361;28;20046;-69
2021/04/08 02:38:01;;;;;;;11.95;5.47;;;2.70;93.30;;;;;;2109622;28;20031;-69
2021/04/08 02:39:07;;;;;;;14.15;5.40;;;2.70;93.60;;;;;;2108211;28;20039;-69
2021/04/08 02:40:10;;;;;;;10.52;4.95;;;2.70;93.40;;;;;;2106454;28;20458;-69
2021/04/08 02:41:12;;;;;;;12.20;5.25;;;2.70;93.10;;;;;;2106490;28;20032;-69
2021/04/08 02:42:13;;;;;;;13.35;5.10;;;2.70;93.40;;;;;;2106102;28;20027;-70
2021/04/08 02:43:14;;;;;;;12.18;5.40;;;2.70;93.60;;;;;;2105432;28;20020;-69
2021/04/08 02:44:15;;;;;;;12.65;5.40;;;2.70;93.70;;;;;;2105615;28;20028;-69
2021/04/08 02:45:16;;;;;;;10.80;5.38;;;2.60;93.40;;;;;;2105019;28;20111;-69
2021/04/08 02:46:17;;;;;;;11.27;5.10;;;2.70;93.50;;;;;;2105130;28;20099;-69
2021/04/08 02:47:18;;;;;;;12.98;5.28;;;2.60;93.20;;;;;;2106028;28;20360;-70
2021/04/08 02:48:21;;;;;;;13.18;5.30;;;2.60;93.10;;;;;;2105472;28;20012;-70
2021/04/08 02:49:21;;;;;;;16.20;5.53;;;2.70;93.60;;;;;;2105607;28;20526;-69
2021/04/08 02:50:22;;;;;;;14.43;5.70;;;2.70;93.40;;;;;;2105482;28;20099;-70
2021/04/08 02:51:32;;;;;;;13.82;5.55;;;2.70;93.80;;;;;;2105614;28;20080;-70
2021/04/08 02:52:41;;;;;;;15.60;5.43;;;2.70;93.20;;;;;;2104748;28;20544;-69
2021/04/08 02:53:47;;;;;;;12.65;5.13;;;2.70;92.80;;;;;;2104444;28;20032;-70
2021/04/08 02:54:49;;;;;;;12.10;5.03;;;2.70;92.90;;;;;;2104971;28;20039;-69
2021/04/08 02:55:52;;;;;;;11.57;5.00;;;2.60;92.70;;;;;;2105463;28;20047;-70
2021/04/08 02:56:57;;;;;;;13.52;5.40;;;2.70;92.90;;;;;;2104617;28;20557;-69
2021/04/08 02:58:03;;;;;;;13.23;5.40;;;2.70;93.00;;;;;;2096973;28;20115;-70
2021/04/08 02:59:16;;;;;;;12.90;4.97;;;2.70;92.80;;;;;;2104930;28;20077;-70
2021/04/08 03:00:17;;;;;;;14.55;4.88;;;2.70;92.60;;;;;;2105532;28;20494;-69
2021/04/08 03:01:20;;;;;;;14.73;5.00;;;2.70;92.50;;;;;;2105578;28;20456;-70
2021/04/08 03:02:26;;;;;;;12.57;4.97;;;2.70;92.70;;;;;;2105572;28;20403;-69
2021/04/08 03:03:41;;;;;;;12.65;5.30;;;2.70;92.90;;;;;;2104781;28;20032;-70
2021/04/08 03:04:47;;;;;;;12.15;5.18;;;2.70;93.20;;;;;;2098215;28;20032;-70
2021/04/08 03:05:48;;;;;;;14.25;4.82;;;2.70;93.50;;;;;;2104940;28;20089;-70
2021/04/08 03:06:53;;;;;;;14.80;5.50;;;2.70;93.40;;;;;;2105555;28;20027;-69
2021/04/08 03:07:55;;;;;;;12.30;5.30;;;2.70;93.40;;;;;;2106624;28;20440;-69
2021/04/08 03:08:58;;;;;;;12.73;5.03;;;2.70;93.60;;;;;;2107378;28;20475;-69
2021/04/08 03:10:03;;;;;;;16.00;5.68;;;2.70;93.50;;;;;;2106813;28;20016;-69
2021/04/08 03:11:07;;;;;;;14.27;4.80;;;2.70;93.20;;;;;;2104906;28;20028;-69
2021/04/08 03:12:10;;;;;;;18.83;5.20;;;2.70;93.20;;;;;;2105384;28;20050;-69
2021/04/08 03:13:12;;;;;;;15.00;5.30;;;2.70;93.10;;;;;;2105747;28;20044;-69
2021/04/08 03:14:14;;;;;;;13.85;4.97;;;2.70;93.10;;;;;;2105762;28;20027;-69
2021/04/08 03:15:23;;;;;;;9.57;4.43;;;2.70;93.00;;;;;;2096435;28;20032;-70
2021/04/08 03:16:28;;;;;;;17.58;5.20;;;2.70;92.80;;;;;;2097667;28;20028;-69
2021/04/08 03:17:39;;;;;;;11.68;4.78;;;2.70;92.70;;;;;;2105336;28;20031;-69
2021/04/08 03:18:42;;;;;;;13.30;4.80;;;2.70;92.70;;;;;;2105417;28;20035;-69
2021/04/08 03:19:45;;;;;;;13.13;4.55;;;2.70;92.70;;;;;;2104748;28;20040;-71
2021/04/08 03:20:53;;;;;;;13.50;4.75;;;2.70;92.70;;;;;;2104947;28;20032;-69
2021/04/08 03:21:54;;;;;;;10.57;4.50;;;2.70;92.60;;;;;;2105499;28;20037;-69
2021/04/08 03:22:56;;;;;;;14.45;4.97;;;2.70;92.50;;;;;;2105275;28;20502;-69
2021/04/08 03:23:58;;;;;;;11.75;4.55;;;2.60;92.30;;;;;;2105123;28;20032;-70
2021/04/08 03:24:59;;;;;;;16.85;5.47;;;2.70;92.00;;;;;;2105227;28;20035;-70
2021/04/08 03:26:01;;;;;;;13.20;4.75;;;2.70;92.20;;;;;;2105412;28;20119;-69
2021/04/08 03:27:03;;;;;;;11.93;4.32;;;2.70;91.70;;;;;;2105446;28;20593;-70
2021/04/08 03:28:06;;;;;;;12.63;4.95;;;2.70;91.40;;;;;;2105549;28;20024;-70
2021/04/08 03:29:08;;;;;;;12.00;5.13;;;2.70;91.30;;;;;;2105410;28;20031;-70
2021/04/08 03:30:13;;;;;;;12.13;4.90;;;2.60;90.80;;;;;;2105486;28;20472;-69
2021/04/08 03:31:15;;;;;;;12.40;5.22;;;2.70;91.10;;;;;;2105388;28;20028;-69
2021/04/08 03:32:20;;;;;;;12.85;5.50;;;2.70;91.40;;;;;;2105538;28;20443;-69
2021/04/08 03:33:22;;;;;;;13.05;5.25;;;2.70;90.80;;;;;;2105049;28;20054;-69
2021/04/08 03:34:23;;;;;;;15.60;6.03;;;2.70;90.90;;;;;;2105549;28;20368;-69
2021/04/08 03:35:25;;;;;;;23.13;6.22;;;2.60;91.20;;;;;;2105502;28;20028;-69
2021/04/08 03:36:26;;;;;;;19.15;6.32;;;2.60;91.60;;;;;;2105087;28;20028;-69
2021/04/08 03:37:26;;;;;;;14.15;6.30;;;2.60;91.70;;;;;;2104827;28;20059;-69
2021/04/08 03:38:28;;;;;;;14.70;5.95;;;2.70;91.90;;;;;;2104905;28;20047;-70
2021/04/08 03:39:29;;;;;;;14.80;6.25;;;2.60;92.10;;;;;;2104886;28;20036;-70
2021/04/08 03:40:30;;;;;;;14.93;6.35;;;2.60;92.10;;;;;;2104683;28;20043;-70
2021/04/08 03:41:38;;;;;;;14.57;6.15;;;2.60;91.50;;;;;;2105387;28;20035;-69
2021/04/08 03:42:39;;;;;;;15.45;6.53;;;2.60;91.70;;;;;;2105255;28;20063;-70
2021/04/08 03:43:41;;;;;;;15.13;5.93;;;2.60;92.40;;;;;;2105085;28;20036;-69
2021/04/08 03:44:42;;;;;;;15.30;6.30;;;2.60;92.20;;;;;;2105373;28;20055;-69
2021/04/08 03:45:43;;;;;;;15.07;6.32;;;2.60;92.20;;;;;;2105328;28;20032;-70
2021/04/08 03:46:45;;;;;;;15.80;6.45;;;2.60;92.00;;;;;;2105376;28;20024;-69
2021/04/08 03:47:47;;;;;;;17.08;7.40;;;2.50;92.20;;;;;;2096287;28;20063;-69
2021/04/08 03:48:50;;;;;;;17.67;7.20;;;2.50;92.50;;;;;;2096618;28;20032;-70
2021/04/08 03:49:52;;;;;;;15.05;7.30;;;2.50;92.50;;;;;;2105334;28;20028;-69
2021/04/08 03:50:53;;;;;;;16.02;7.38;;;2.50;92.60;;;;;;2105282;28;20040;-69
2021/04/08 03:51:54;;;;;;;15.10;7.47;;;2.50;92.80;;;;;;2105375;28;20099;-69
2021/04/08 03:52:56;;;;;;;17.58;8.00;;;2.50;93.30;;;;;;2105073;28;20495;-70
2021/04/08 03:53:57;;;;;;;16.67;8.00;;;2.50;93.00;;;;;;2105147;28;20529;-69
2021/04/08 03:54:58;;;;;;;16.55;8.00;;;2.40;92.80;;;;;;2105341;28;20085;-69
2021/04/08 03:55:59;;;;;;;17.63;8.32;;;2.40;92.70;;;;;;2105272;28;20032;-70
2021/04/08 03:57:02;;;;;;;17.85;8.32;;;2.40;92.80;;;;;;2105328;28;20036;-69
2021/04/08 03:58:06;;;;;;;16.63;8.75;;;2.40;92.90;;;;;;2104549;28;20032;-70
2021/04/08 03:59:07;;;;;;;17.00;8.27;;;2.40;93.00;;;;;;2104805;28;20073;-69
2021/04/08 04:00:10;;;;;;;20.80;9.35;;;2.30;93.10;;;;;;2105298;28;20016;-69
2021/04/08 04:01:11;;;;;;;18.60;9.55;;;2.40;93.50;;;;;;2105283;28;20395;-70
2021/04/08 04:02:15;;;;;;;18.83;9.30;;;2.40;93.70;;;;;;2105357;28;20028;-69
2021/04/08 04:03:17;;;;;;;19.55;9.85;;;2.40;93.40;;;;;;2104908;28;20020;-69
2021/04/08 04:04:19;;;;;;;19.17;10.13;;;2.30;93.40;;;;;;2105510;28;20317;-71
2021/04/08 04:05:22;;;;;;;19.05;9.88;;;2.30;93.80;;;;;;2096066;28;20058;-71
2021/04/08 04:06:23;;;;;;;20.10;9.98;;;2.40;94.00;;;;;;2096613;28;20035;-70
2021/04/08 04:07:23;;;;;;;20.23;10.20;;;2.30;93.70;;;;;;2105184;28;20523;-69
2021/04/08 04:08:25;;;;;;;17.95;10.20;;;2.30;93.50;;;;;;2105378;28;20078;-70
2021/04/08 04:09:26;;;;;;;19.10;10.50;;;2.30;93.60;;;;;;2105270;28;20020;-70
2021/04/08 04:10:27;;;;;;;22.65;11.88;;;2.30;93.80;;;;;;2105319;28;20188;-70
2021/04/08 04:11:31;;;;;;;24.45;12.10;;;2.20;94.20;;;;;;2105394;28;20032;-70
2021/04/08 04:12:35;;;;;;;24.70;12.02;;;2.10;94.60;;;;;;2105184;28;20028;-70
2021/04/08 04:13:35;;;;;;;28.25;13.07;;;2.10;95.20;;;;;;2104473;28;20071;-70
2021/04/08 04:14:37;;;;;;;23.67;12.70;;;2.10;95.70;;;;;;2104894;28;20036;-71
2021/04/08 04:15:39;;;;;;;26.45;12.20;;;2.00;96.00;;;;;;2105160;28;20036;-70
2021/04/08 04:16:44;;;;;;;22.33;12.43;;;2.00;96.20;;;;;;2105469;28;20026;-70
2021/04/08 04:17:44;;;;;;;26.95;12.30;;;2.00;96.30;;;;;;2105343;28;20199;-69
2021/04/08 04:18:45;;;;;;;23.45;11.68;;;2.00;96.40;;;;;;2105196;28;20127;-69
2021/04/08 04:19:45;;;;;;;20.02;11.27;;;1.90;96.50;;;;;;2105246;28;20039;-69
2021/04/08 04:20:46;;;;;;;20.77;11.73;;;1.90;96.60;;;;;;2105223;28;20054;-69
2021/04/08 04:21:47;;;;;;;21.30;11.50;;;2.00;96.80;;;;;;2105271;28;20066;-71
2021/04/08 04:22:49;;;;;;;25.52;12.63;;;2.00;96.80;;;;;;2105179;28;20021;-71
2021/04/08 04:23:50;;;;;;;24.67;12.43;;;1.90;96.80;;;;;;2106245;28;20130;-71
2021/04/08 04:24:51;;;;;;;25.05;12.57;;;1.90;96.90;;;;;;2106772;28;20031;-71
2021/04/08 04:25:52;;;;;;;26.50;13.77;;;1.90;97.00;;;;;;2106886;28;20396;-69
2021/04/08 04:26:53;;;;;;;28.67;13.57;;;1.90;96.90;;;;;;2106820;28;20107;-69
2021/04/08 04:27:54;;;;;;;26.65;12.98;;;1.80;96.90;;;;;;2106115;28;20574;-69
2021/04/08 04:28:54;;;;;;;26.92;13.57;;;1.90;97.20;;;;;;2106018;28;20032;-69
2021/04/08 04:29:55;;;;;;;25.40;13.90;;;1.90;97.30;;;;;;2106784;28;20050;-70
2021/04/08 04:30:55;;;;;;;23.13;13.50;;;1.80;97.20;;;;;;2106756;28;20020;-70
2021/04/08 04:31:56;;;;;;;27.92;14.77;;;1.90;97.20;;;;;;2106633;28;20425;-70
2021/04/08 04:32:57;;;;;;;26.92;14.75;;;1.90;97.20;;;;;;2106616;28;20114;-70
2021/04/08 04:33:57;;;;;;;28.27;14.45;;;1.90;97.30;;;;;;2106446;28;20062;-70
2021/04/08 04:34:58;;;;;;;30.30;14.70;;;1.90;97.30;;;;;;2106668;28;20024;-70
2021/04/08 04:35:59;;;;;;;27.63;15.00;;;2.00;97.10;;;;;;2106709;28;20449;-70
2021/04/08 04:36:59;;;;;;;28.42;14.70;;;2.00;97.20;;;;;;2106705;28;20453;-70
2021/04/08 04:38:00;;;;;;;29.98;15.30;;;2.00;97.10;;;;;;2097609;28;20066;-70
2021/04/08 04:39:04;;;;;;;29.85;15.35;;;1.90;97.20;;;;;;2097779;28;20043;-70
2021/04/08 04:40:06;;;;;;;31.50;14.98;;;1.90;97.50;;;;;;2106527;28;20035;-70
2021/04/08 04:41:06;;;;;;;29.05;15.52;;;1.80;97.60;;;;;;2106644;28;20028;-70
2021/04/08 04:42:08;;;;;;;30.70;15.82;;;1.80;97.80;;;;;;2106703;28;20023;-70
2021/04/08 04:43:09;;;;;;;26.52;14.77;;;1.80;98.00;;;;;;2106632;28;20024;-70
2021/04/08 04:44:09;;;;;;;28.52;14.55;;;1.80;98.00;;;;;;2106597;28;20095;-70
2021/04/08 04:45:11;;;;;;;29.35;14.93;;;1.70;98.00;;;;;;2105759;28;20560;-70
2021/04/08 04:46:12;;;;;;;33.00;14.70;;;1.70;98.30;;;;;;2106127;28;20036;-70
2021/04/08 04:47:12;;;;;;;31.23;15.02;;;1.70;98.30;;;;;;2108386;28;20028;-70
2021/04/08 04:48:13;;;;;;;27.45;14.57;;;1.70;98.40;;;;;;2108857;28;20024;-69
2021/04/08 04:49:14;;;;;;;27.05;14.10;;;1.70;98.40;;;;;;2109511;28;20024;-70
2021/04/08 04:50:14;;;;;;;28.48;13.43;;;1.70;98.40;;;;;;2109300;28;20020;-69
2021/04/08 04:51:15;;;;;;;27.35;13.98;;;1.70;98.30;;;;;;2109487;28;20538;-69
2021/04/08 04:52:16;;;;;;;26.80;14.05;;;1.80;98.40;;;;;;2101025;28;20137;-69
2021/04/08 04:53:17;;;;;;;26.75;14.55;;;1.80;98.40;;;;;;2107588;28;20028;-69
2021/04/08 04:54:18;;;;;;;27.40;12.90;;;1.80;98.50;;;;;;2107667;28;20099;-69
2021/04/08 04:55:19;;;;;;;23.40;12.95;;;1.80;97.70;;;;;;2107056;28;20050;-70
2021/04/08 04:56:19;;;;;;;21.48;11.98;;;1.80;97.50;;;;;;2106963;28;20441;-69
2021/04/08 04:57:20;;;;;;;23.55;12.23;;;1.80;97.30;;;;;;2106882;28;20035;-69
2021/04/08 04:58:20;;;;;;;27.45;12.50;;;1.90;97.30;;;;;;2106667;28;20479;-69
2021/04/08 04:59:21;;;;;;;21.70;11.70;;;1.90;97.20;;;;;;2106594;28;20040;-69
2021/04/08 05:00:22;;;;;;;23.15;12.23;;;1.90;97.00;;;;;;2106563;28;20383;-69
2021/04/08 05:01:23;;;;;;;23.35;12.07;;;1.90;96.70;;;;;;2106554;28;20036;-68
2021/04/08 05:02:24;;;;;;;24.17;12.05;;;1.90;96.70;;;;;;2106552;28;20469;-69
2021/04/08 05:03:24;;;;;;;23.60;11.85;;;1.90;96.80;;;;;;2106183;28;20028;-69
2021/04/08 05:04:25;;;;;;;23.83;12.52;;;1.90;96.90;;;;;;2106552;28;20569;-69
2021/04/08 05:05:26;;;;;;;23.90;11.70;;;1.90;96.80;;;;;;2106547;28;20050;-70
2021/04/08 05:06:26;;;;;;;21.73;12.00;;;1.90;96.60;;;;;;2106772;28;20518;-69
2021/04/08 05:07:27;;;;;;;25.00;11.38;;;2.00;96.80;;;;;;2106505;28;20126;-69
2021/04/08 05:08:27;;;;;;;20.98;11.90;;;2.00;96.90;;;;;;2106577;28;20036;-72
2021/04/08 05:09:28;;;;;;;25.67;11.57;;;2.00;96.80;;;;;;2107170;28;20397;-69
2021/04/08 05:10:29;;;;;;;25.88;12.07;;;2.10;96.40;;;;;;2107134;28;20026;-69
2021/04/08 05:11:29;;;;;;;21.58;10.65;;;2.10;96.60;;;;;;2107251;28;20032;-69
2021/04/08 05:12:30;;;;;;;26.90;11.48;;;2.10;96.40;;;;;;2106306;28;20024;-69
2021/04/08 05:13:31;;;;;;;22.02;10.73;;;2.10;96.40;;;;;;2105589;28;20050;-69
2021/04/08 05:14:32;;;;;;;22.13;10.85;;;2.10;96.50;;;;;;2106510;28;20104;-70
2021/04/08 05:15:33;;;;;;;21.63;10.68;;;2.10;96.20;;;;;;2105996;28;20024;-70
2021/04/08 05:16:34;;;;;;;20.45;10.75;;;2.10;96.40;;;;;;2105794;28;20506;-70
2021/04/08 05:17:34;;;;;;;23.65;11.40;;;2.10;96.60;;;;;;2106473;28;20442;-70
2021/04/08 05:18:35;;;;;;;23.13;10.82;;;2.10;96.60;;;;;;2105808;28;20036;-70
2021/04/08 05:19:35;;;;;;;24.90;11.10;;;2.10;96.70;;;;;;2106080;28;20028;-70
2021/04/08 05:20:36;;;;;;;20.63;10.45;;;2.20;96.90;;;;;;2106475;28;20411;-70
2021/04/08 05:21:37;;;;;;;20.85;11.05;;;2.20;96.70;;;;;;2106384;28;20069;-69
2021/04/08 05:22:37;;;;;;;23.80;10.60;;;2.20;96.30;;;;;;2106434;28;20436;-70
2021/04/08 05:23:39;;;;;;;21.50;10.60;;;2.20;96.20;;;;;;2097074;28;20035;-70
2021/04/08 05:24:39;;;;;;;20.05;10.35;;;2.20;96.20;;;;;;2097415;28;20075;-70
2021/04/08 05:25:40;;;;;;;22.50;10.48;;;2.20;96.00;;;;;;2106304;28;20115;-70